sensor_id;sensor_type;location;lat;lon;timestamp;P1;durP1;ratioP1;P2;durP2;ratioP2
70369;SDS011;57790;51.356;-2.906;2023-07-02T00:02:33;11.23;;;2.93;;
70369;SDS011;57790;51.356;-2.906;2023-07-02T00:05:34;13.15;;;2.90;;
70369;SDS011;57790;51.356;-2.906;2023-07-02T00:08:34;10.47;;;2.50;;
70369;SDS011;57790;51.356;-2.906;2023-07-02T00:11:35;11.90;;;2.80;;
70369;SDS011;57790;51.356;-2.906;2023-07-02T00:14:35;11.07;;;3.10;;
70369;SDS011;57790;51.356;-2.906;2023-07-02T00:17:35;10.03;;;2.80;;
70369;SDS011;57790;51.356;-2.906;2023-07-02T00:20:39;10.10;;;2.67;;
70369;SDS011;57790;51.356;-2.906;2023-07-02T00:23:41;11.15;;;2.78;;
70369;SDS011;57790;51.356;-2.906;2023-07-02T00:26:42;9.83;;;2.90;;
70369;SDS011;57790;51.356;-2.906;2023-07-02T00:29:42;11.88;;;3.00;;
70369;SDS011;57790;51.356;-2.906;2023-07-02T00:32:43;10.53;;;2.53;;
70369;SDS011;57790;51.356;-2.906;2023-07-02T00:35:43;11.13;;;2.50;;
70369;SDS011;57790;51.356;-2.906;2023-07-02T00:38:44;13.00;;;2.73;;
70369;SDS011;57790;51.356;-2.906;2023-07-02T00:41:47;9.60;;;2.60;;
70369;SDS011;57790;51.356;-2.906;2023-07-02T00:44:47;12.63;;;2.70;;
70369;SDS011;57790;51.356;-2.906;2023-07-02T00:47:47;12.23;;;2.67;;
70369;SDS011;57790;51.356;-2.906;2023-07-02T00:50:48;9.30;;;2.70;;
70369;SDS011;57790;51.356;-2.906;2023-07-02T00:53:50;10.30;;;2.50;;
70369;SDS011;57790;51.356;-2.906;2023-07-02T00:56:51;11.43;;;2.90;;
70369;SDS011;57790;51.356;-2.906;2023-07-02T00:59:52;9.47;;;2.13;;
70369;SDS011;57790;51.356;-2.906;2023-07-02T01:02:53;9.25;;;2.40;;
70369;SDS011;57790;51.356;-2.906;2023-07-02T01:05:59;9.38;;;2.42;;
70369;SDS011;57790;51.356;-2.906;2023-07-02T01:09:03;9.13;;;2.40;;
70369;SDS011;57790;51.356;-2.906;2023-07-02T01:12:05;9.32;;;2.72;;
70369;SDS011;57790;51.356;-2.906;2023-07-02T01:15:08;9.95;;;2.40;;
70369;SDS011;57790;51.356;-2.906;2023-07-02T01:18:09;9.53;;;2.27;;
70369;SDS011;57790;51.356;-2.906;2023-07-02T01:21:12;8.68;;;2.38;;
70369;SDS011;57790;51.356;-2.906;2023-07-02T01:24:13;8.80;;;2.28;;
70369;SDS011;57790;51.356;-2.906;2023-07-02T01:27:17;11.25;;;2.45;;
70369;SDS011;57790;51.356;-2.906;2023-07-02T01:30:18;12.03;;;2.73;;
70369;SDS011;57790;51.356;-2.906;2023-07-02T01:33:19;8.50;;;2.22;;
70369;SDS011;57790;51.356;-2.906;2023-07-02T01:36:19;9.27;;;2.07;;
70369;SDS011;57790;51.356;-2.906;2023-07-02T01:39:19;10.00;;;2.20;;
70369;SDS011;57790;51.356;-2.906;2023-07-02T01:42:20;10.47;;;2.30;;
70369;SDS011;57790;51.356;-2.906;2023-07-02T01:45:20;10.32;;;2.63;;
70369;SDS011;57790;51.356;-2.906;2023-07-02T01:48:21;8.10;;;2.13;;
70369;SDS011;57790;51.356;-2.906;2023-07-02T01:51:21;8.87;;;2.20;;
70369;SDS011;57790;51.356;-2.906;2023-07-02T01:54:22;8.63;;;2.20;;
70369;SDS011;57790;51.356;-2.906;2023-07-02T01:57:27;10.80;;;2.40;;
70369;SDS011;57790;51.356;-2.906;2023-07-02T02:00:27;7.85;;;2.03;;
70369;SDS011;57790;51.356;-2.906;2023-07-02T02:03:28;9.57;;;2.03;;
70369;SDS011;57790;51.356;-2.906;2023-07-02T02:06:28;11.47;;;2.57;;
70369;SDS011;57790;51.356;-2.906;2023-07-02T02:09:29;9.07;;;2.10;;
70369;SDS011;57790;51.356;-2.906;2023-07-02T02:12:32;10.18;;;2.30;;
70369;SDS011;57790;51.356;-2.906;2023-07-02T02:15:32;8.30;;;2.00;;
70369;SDS011;57790;51.356;-2.906;2023-07-02T02:18:33;10.03;;;2.20;;
70369;SDS011;57790;51.356;-2.906;2023-07-02T02:21:33;12.07;;;2.43;;
70369;SDS011;57790;51.356;-2.906;2023-07-02T02:24:33;9.00;;;2.10;;
70369;SDS011;57790;51.356;-2.906;2023-07-02T02:27:34;9.33;;;2.13;;
70369;SDS011;57790;51.356;-2.906;2023-07-02T02:30:34;7.97;;;2.27;;
70369;SDS011;57790;51.356;-2.906;2023-07-02T02:33:35;7.87;;;2.30;;
70369;SDS011;57790;51.356;-2.906;2023-07-02T02:36:35;9.73;;;2.40;;
70369;SDS011;57790;51.356;-2.906;2023-07-02T02:39:36;8.63;;;1.90;;
70369;SDS011;57790;51.356;-2.906;2023-07-02T02:42:36;9.68;;;2.13;;
70369;SDS011;57790;51.356;-2.906;2023-07-02T02:45:36;7.87;;;2.10;;
70369;SDS011;57790;51.356;-2.906;2023-07-02T02:48:37;8.93;;;2.10;;
70369;SDS011;57790;51.356;-2.906;2023-07-02T02:51:37;9.70;;;2.20;;
70369;SDS011;57790;51.356;-2.906;2023-07-02T02:54:38;8.93;;;2.10;;
70369;SDS011;57790;51.356;-2.906;2023-07-02T02:57:38;12.13;;;2.50;;
70369;SDS011;57790;51.356;-2.906;2023-07-02T03:00:38;9.07;;;2.10;;
70369;SDS011;57790;51.356;-2.906;2023-07-02T03:03:45;9.63;;;2.28;;
70369;SDS011;57790;51.356;-2.906;2023-07-02T03:06:45;10.63;;;2.20;;
70369;SDS011;57790;51.356;-2.906;2023-07-02T03:09:46;9.90;;;2.30;;
70369;SDS011;57790;51.356;-2.906;2023-07-02T03:12:47;7.07;;;1.80;;
70369;SDS011;57790;51.356;-2.906;2023-07-02T03:15:47;9.65;;;2.28;;
70369;SDS011;57790;51.356;-2.906;2023-07-02T03:18:48;8.97;;;2.33;;
70369;SDS011;57790;51.356;-2.906;2023-07-02T03:21:48;9.80;;;2.40;;
70369;SDS011;57790;51.356;-2.906;2023-07-02T03:24:49;9.07;;;2.00;;
70369;SDS011;57790;51.356;-2.906;2023-07-02T03:27:49;7.22;;;1.77;;
70369;SDS011;57790;51.356;-2.906;2023-07-02T03:30:49;10.13;;;2.10;;
70369;SDS011;57790;51.356;-2.906;2023-07-02T03:33:50;7.80;;;2.20;;
70369;SDS011;57790;51.356;-2.906;2023-07-02T03:36:50;7.47;;;1.90;;
70369;SDS011;57790;51.356;-2.906;2023-07-02T03:39:50;8.17;;;2.00;;
70369;SDS011;57790;51.356;-2.906;2023-07-02T03:42:51;8.87;;;2.20;;
70369;SDS011;57790;51.356;-2.906;2023-07-02T03:45:52;8.87;;;2.00;;
70369;SDS011;57790;51.356;-2.906;2023-07-02T03:48:52;8.65;;;1.90;;
70369;SDS011;57790;51.356;-2.906;2023-07-02T03:51:53;7.72;;;2.08;;
70369;SDS011;57790;51.356;-2.906;2023-07-02T03:54:53;8.53;;;2.40;;
70369;SDS011;57790;51.356;-2.906;2023-07-02T03:57:54;8.73;;;1.93;;
70369;SDS011;57790;51.356;-2.906;2023-07-02T04:00:54;9.83;;;2.13;;
70369;SDS011;57790;51.356;-2.906;2023-07-02T04:03:54;8.13;;;2.10;;
70369;SDS011;57790;51.356;-2.906;2023-07-02T04:06:58;9.75;;;2.05;;
70369;SDS011;57790;51.356;-2.906;2023-07-02T04:09:58;9.20;;;1.87;;
70369;SDS011;57790;51.356;-2.906;2023-07-02T04:12:59;7.80;;;2.15;;
70369;SDS011;57790;51.356;-2.906;2023-07-02T04:16:00;8.77;;;2.10;;
70369;SDS011;57790;51.356;-2.906;2023-07-02T04:19:00;10.00;;;1.85;;
70369;SDS011;57790;51.356;-2.906;2023-07-02T04:22:00;8.73;;;1.87;;
70369;SDS011;57790;51.356;-2.906;2023-07-02T04:25:01;8.77;;;2.00;;
70369;SDS011;57790;51.356;-2.906;2023-07-02T04:28:01;9.60;;;1.87;;
70369;SDS011;57790;51.356;-2.906;2023-07-02T04:31:02;9.98;;;2.05;;
70369;SDS011;57790;51.356;-2.906;2023-07-02T04:34:03;9.03;;;2.07;;
70369;SDS011;57790;51.356;-2.906;2023-07-02T04:37:05;10.05;;;1.85;;
70369;SDS011;57790;51.356;-2.906;2023-07-02T04:40:06;8.77;;;1.97;;
70369;SDS011;57790;51.356;-2.906;2023-07-02T04:43:09;7.50;;;1.90;;
70369;SDS011;57790;51.356;-2.906;2023-07-02T04:46:10;8.27;;;1.80;;
70369;SDS011;57790;51.356;-2.906;2023-07-02T04:49:12;8.15;;;2.00;;
70369;SDS011;57790;51.356;-2.906;2023-07-02T04:52:12;9.00;;;2.20;;
70369;SDS011;57790;51.356;-2.906;2023-07-02T04:55:13;9.13;;;2.07;;
70369;SDS011;57790;51.356;-2.906;2023-07-02T04:58:14;8.15;;;1.88;;
70369;SDS011;57790;51.356;-2.906;2023-07-02T05:01:14;7.10;;;1.70;;
70369;SDS011;57790;51.356;-2.906;2023-07-02T05:04:14;9.93;;;2.00;;
70369;SDS011;57790;51.356;-2.906;2023-07-02T05:07:15;7.93;;;1.70;;
70369;SDS011;57790;51.356;-2.906;2023-07-02T05:10:16;9.00;;;2.00;;
70369;SDS011;57790;51.356;-2.906;2023-07-02T05:13:17;8.40;;;1.70;;
70369;SDS011;57790;51.356;-2.906;2023-07-02T05:16:17;8.50;;;2.03;;
70369;SDS011;57790;51.356;-2.906;2023-07-02T05:19:18;7.10;;;1.67;;
70369;SDS011;57790;51.356;-2.906;2023-07-02T05:22:18;10.65;;;2.00;;
70369;SDS011;57790;51.356;-2.906;2023-07-02T05:25:19;7.10;;;1.70;;
70369;SDS011;57790;51.356;-2.906;2023-07-02T05:28:19;10.03;;;2.13;;
70369;SDS011;57790;51.356;-2.906;2023-07-02T05:31:20;11.40;;;2.30;;
70369;SDS011;57790;51.356;-2.906;2023-07-02T05:34:20;8.13;;;1.80;;
70369;SDS011;57790;51.356;-2.906;2023-07-02T05:37:22;8.38;;;2.00;;
70369;SDS011;57790;51.356;-2.906;2023-07-02T05:40:23;8.23;;;1.90;;
70369;SDS011;57790;51.356;-2.906;2023-07-02T05:43:23;8.48;;;1.90;;
70369;SDS011;57790;51.356;-2.906;2023-07-02T05:46:26;10.67;;;1.87;;
70369;SDS011;57790;51.356;-2.906;2023-07-02T05:49:27;8.90;;;1.83;;
70369;SDS011;57790;51.356;-2.906;2023-07-02T05:52:27;9.63;;;2.40;;
70369;SDS011;57790;51.356;-2.906;2023-07-02T05:55:28;7.90;;;2.13;;
70369;SDS011;57790;51.356;-2.906;2023-07-02T05:58:28;10.27;;;2.03;;
70369;SDS011;57790;51.356;-2.906;2023-07-02T06:01:30;7.22;;;1.70;;
70369;SDS011;57790;51.356;-2.906;2023-07-02T06:04:30;7.20;;;1.73;;
70369;SDS011;57790;51.356;-2.906;2023-07-02T06:07:30;11.53;;;2.00;;
70369;SDS011;57790;51.356;-2.906;2023-07-02T06:10:31;12.43;;;2.13;;
70369;SDS011;57790;51.356;-2.906;2023-07-02T06:13:31;8.93;;;1.70;;
70369;SDS011;57790;51.356;-2.906;2023-07-02T06:16:32;8.30;;;1.83;;
70369;SDS011;57790;51.356;-2.906;2023-07-02T06:19:33;8.65;;;1.77;;
70369;SDS011;57790;51.356;-2.906;2023-07-02T06:22:34;9.53;;;1.87;;
70369;SDS011;57790;51.356;-2.906;2023-07-02T06:25:34;8.80;;;1.90;;
70369;SDS011;57790;51.356;-2.906;2023-07-02T06:28:34;7.97;;;2.00;;
70369;SDS011;57790;51.356;-2.906;2023-07-02T06:31:38;9.77;;;1.90;;
70369;SDS011;57790;51.356;-2.906;2023-07-02T06:34:38;7.45;;;1.80;;
70369;SDS011;57790;51.356;-2.906;2023-07-02T06:37:39;11.07;;;1.80;;
70369;SDS011;57790;51.356;-2.906;2023-07-02T06:40:39;8.80;;;1.70;;
70369;SDS011;57790;51.356;-2.906;2023-07-02T06:43:41;10.73;;;2.70;;
70369;SDS011;57790;51.356;-2.906;2023-07-02T06:46:48;7.30;;;1.48;;
70369;SDS011;57790;51.356;-2.906;2023-07-02T06:49:48;9.07;;;1.77;;
70369;SDS011;57790;51.356;-2.906;2023-07-02T06:52:49;10.27;;;1.87;;
70369;SDS011;57790;51.356;-2.906;2023-07-02T06:55:49;10.67;;;1.93;;
70369;SDS011;57790;51.356;-2.906;2023-07-02T06:58:50;10.60;;;2.67;;
70369;SDS011;57790;51.356;-2.906;2023-07-02T07:01:50;8.87;;;2.03;;
70369;SDS011;57790;51.356;-2.906;2023-07-02T07:04:50;10.17;;;2.07;;
70369;SDS011;57790;51.356;-2.906;2023-07-02T07:07:51;7.77;;;1.70;;
70369;SDS011;57790;51.356;-2.906;2023-07-02T07:10:51;8.83;;;1.97;;
70369;SDS011;57790;51.356;-2.906;2023-07-02T07:13:52;10.20;;;2.13;;
70369;SDS011;57790;51.356;-2.906;2023-07-02T07:16:52;8.50;;;1.70;;
70369;SDS011;57790;51.356;-2.906;2023-07-02T07:19:52;9.17;;;1.97;;
70369;SDS011;57790;51.356;-2.906;2023-07-02T07:22:53;7.70;;;1.80;;
70369;SDS011;57790;51.356;-2.906;2023-07-02T07:25:53;8.97;;;2.00;;
70369;SDS011;57790;51.356;-2.906;2023-07-02T07:28:54;9.57;;;1.87;;
70369;SDS011;57790;51.356;-2.906;2023-07-02T07:31:56;7.40;;;1.95;;
70369;SDS011;57790;51.356;-2.906;2023-07-02T07:34:56;9.97;;;1.77;;
70369;SDS011;57790;51.356;-2.906;2023-07-02T07:37:56;7.95;;;1.45;;
70369;SDS011;57790;51.356;-2.906;2023-07-02T07:40:57;8.43;;;1.80;;
70369;SDS011;57790;51.356;-2.906;2023-07-02T07:43:57;6.00;;;1.57;;
70369;SDS011;57790;51.356;-2.906;2023-07-02T07:46:58;11.17;;;2.13;;
70369;SDS011;57790;51.356;-2.906;2023-07-02T07:49:58;8.20;;;1.67;;
70369;SDS011;57790;51.356;-2.906;2023-07-02T07:52:59;9.10;;;2.20;;
70369;SDS011;57790;51.356;-2.906;2023-07-02T07:55:59;8.83;;;1.87;;
70369;SDS011;57790;51.356;-2.906;2023-07-02T07:58:59;8.50;;;1.63;;
70369;SDS011;57790;51.356;-2.906;2023-07-02T08:02:03;8.65;;;1.50;;
70369;SDS011;57790;51.356;-2.906;2023-07-02T08:05:04;10.17;;;1.97;;
70369;SDS011;57790;51.356;-2.906;2023-07-02T08:08:05;8.02;;;1.65;;
70369;SDS011;57790;51.356;-2.906;2023-07-02T08:11:06;7.95;;;1.83;;
70369;SDS011;57790;51.356;-2.906;2023-07-02T08:14:06;10.17;;;2.13;;
70369;SDS011;57790;51.356;-2.906;2023-07-02T08:17:07;8.63;;;1.80;;
70369;SDS011;57790;51.356;-2.906;2023-07-02T08:20:07;9.00;;;2.00;;
70369;SDS011;57790;51.356;-2.906;2023-07-02T08:23:09;11.90;;;2.03;;
70369;SDS011;57790;51.356;-2.906;2023-07-02T08:26:11;8.68;;;1.55;;
70369;SDS011;57790;51.356;-2.906;2023-07-02T08:29:12;9.20;;;1.70;;
70369;SDS011;57790;51.356;-2.906;2023-07-02T08:32:12;9.03;;;2.17;;
70369;SDS011;57790;51.356;-2.906;2023-07-02T08:35:13;9.13;;;2.13;;
70369;SDS011;57790;51.356;-2.906;2023-07-02T08:38:13;8.47;;;1.60;;
70369;SDS011;57790;51.356;-2.906;2023-07-02T08:41:15;8.82;;;1.70;;
70369;SDS011;57790;51.356;-2.906;2023-07-02T08:44:20;9.67;;;2.00;;
70369;SDS011;57790;51.356;-2.906;2023-07-02T08:47:32;7.55;;;1.67;;
70369;SDS011;57790;51.356;-2.906;2023-07-02T08:50:32;8.50;;;1.65;;
70369;SDS011;57790;51.356;-2.906;2023-07-02T08:53:33;9.60;;;2.00;;
70369;SDS011;57790;51.356;-2.906;2023-07-02T08:56:34;8.30;;;1.85;;
70369;SDS011;57790;51.356;-2.906;2023-07-02T08:59:38;9.70;;;1.73;;
70369;SDS011;57790;51.356;-2.906;2023-07-02T09:02:38;9.15;;;1.70;;
70369;SDS011;57790;51.356;-2.906;2023-07-02T09:05:47;7.43;;;1.50;;
70369;SDS011;57790;51.356;-2.906;2023-07-02T09:08:51;6.70;;;1.60;;
70369;SDS011;57790;51.356;-2.906;2023-07-02T09:11:51;8.93;;;1.60;;
70369;SDS011;57790;51.356;-2.906;2023-07-02T09:17:57;7.55;;;1.58;;
70369;SDS011;57790;51.356;-2.906;2023-07-02T09:20:57;9.73;;;1.70;;
70369;SDS011;57790;51.356;-2.906;2023-07-02T09:23:58;7.53;;;1.63;;
70369;SDS011;57790;51.356;-2.906;2023-07-02T09:26:59;9.50;;;1.70;;
70369;SDS011;57790;51.356;-2.906;2023-07-02T09:30:10;10.70;;;1.50;;
70369;SDS011;57790;51.356;-2.906;2023-07-02T09:33:16;8.38;;;1.63;;
70369;SDS011;57790;51.356;-2.906;2023-07-02T09:36:17;10.20;;;1.70;;
70369;SDS011;57790;51.356;-2.906;2023-07-02T09:39:18;8.63;;;1.93;;
70369;SDS011;57790;51.356;-2.906;2023-07-02T09:42:20;8.65;;;1.52;;
70369;SDS011;57790;51.356;-2.906;2023-07-02T09:45:21;10.77;;;1.92;;
70369;SDS011;57790;51.356;-2.906;2023-07-02T09:48:23;10.37;;;1.80;;
70369;SDS011;57790;51.356;-2.906;2023-07-02T09:51:28;8.95;;;1.80;;
70369;SDS011;57790;51.356;-2.906;2023-07-02T09:54:29;8.88;;;1.60;;
70369;SDS011;57790;51.356;-2.906;2023-07-02T09:57:30;9.30;;;1.50;;
70369;SDS011;57790;51.356;-2.906;2023-07-02T10:00:31;8.98;;;1.35;;
70369;SDS011;57790;51.356;-2.906;2023-07-02T10:03:31;10.03;;;1.77;;
70369;SDS011;57790;51.356;-2.906;2023-07-02T10:06:43;8.85;;;1.60;;
70369;SDS011;57790;51.356;-2.906;2023-07-02T10:09:48;9.17;;;1.70;;
70369;SDS011;57790;51.356;-2.906;2023-07-02T10:12:48;7.50;;;1.23;;
70369;SDS011;57790;51.356;-2.906;2023-07-02T10:15:48;8.83;;;1.40;;
70369;SDS011;57790;51.356;-2.906;2023-07-02T10:22:13;9.10;;;1.33;;
70369;SDS011;57790;51.356;-2.906;2023-07-02T10:25:26;8.03;;;1.43;;
70369;SDS011;57790;51.356;-2.906;2023-07-02T10:28:27;9.40;;;1.80;;
70369;SDS011;57790;51.356;-2.906;2023-07-02T10:31:28;8.68;;;1.55;;
70369;SDS011;57790;51.356;-2.906;2023-07-02T10:34:32;9.17;;;1.70;;
70369;SDS011;57790;51.356;-2.906;2023-07-02T10:37:36;8.18;;;1.40;;
70369;SDS011;57790;51.356;-2.906;2023-07-02T10:40:37;9.23;;;1.52;;
70369;SDS011;57790;51.356;-2.906;2023-07-02T10:43:38;8.23;;;1.40;;
70369;SDS011;57790;51.356;-2.906;2023-07-02T10:49:45;9.93;;;1.52;;
70369;SDS011;57790;51.356;-2.906;2023-07-02T10:52:46;6.50;;;1.20;;
70369;SDS011;57790;51.356;-2.906;2023-07-02T10:55:54;7.57;;;1.23;;
70369;SDS011;57790;51.356;-2.906;2023-07-02T10:58:55;7.82;;;1.30;;
70369;SDS011;57790;51.356;-2.906;2023-07-02T11:01:56;8.57;;;1.40;;
70369;SDS011;57790;51.356;-2.906;2023-07-02T11:05:01;8.50;;;1.20;;
70369;SDS011;57790;51.356;-2.906;2023-07-02T11:08:07;8.13;;;1.75;;
70369;SDS011;57790;51.356;-2.906;2023-07-02T11:11:08;8.52;;;1.55;;
70369;SDS011;57790;51.356;-2.906;2023-07-02T11:14:09;6.87;;;1.70;;
70369;SDS011;57790;51.356;-2.906;2023-07-02T11:17:09;10.32;;;1.60;;
70369;SDS011;57790;51.356;-2.906;2023-07-02T11:20:11;6.33;;;1.40;;
70369;SDS011;57790;51.356;-2.906;2023-07-02T11:26:18;8.20;;;1.40;;
70369;SDS011;57790;51.356;-2.906;2023-07-02T11:29:19;7.00;;;2.03;;
70369;SDS011;57790;51.356;-2.906;2023-07-02T11:32:19;7.07;;;1.40;;
70369;SDS011;57790;51.356;-2.906;2023-07-02T11:35:20;7.70;;;1.40;;
70369;SDS011;57790;51.356;-2.906;2023-07-02T11:38:21;5.95;;;1.40;;
70369;SDS011;57790;51.356;-2.906;2023-07-02T11:41:21;8.77;;;1.77;;
70369;SDS011;57790;51.356;-2.906;2023-07-02T11:44:22;9.00;;;1.40;;
70369;SDS011;57790;51.356;-2.906;2023-07-02T11:47:22;7.30;;;1.50;;
70369;SDS011;57790;51.356;-2.906;2023-07-02T11:50:23;8.13;;;1.50;;
70369;SDS011;57790;51.356;-2.906;2023-07-02T11:53:23;7.30;;;1.50;;
70369;SDS011;57790;51.356;-2.906;2023-07-02T11:56:24;7.88;;;2.08;;
70369;SDS011;57790;51.356;-2.906;2023-07-02T11:59:25;10.27;;;1.93;;
70369;SDS011;57790;51.356;-2.906;2023-07-02T12:02:25;7.73;;;1.33;;
70369;SDS011;57790;51.356;-2.906;2023-07-02T12:05:26;6.85;;;1.20;;
70369;SDS011;57790;51.356;-2.906;2023-07-02T12:08:26;6.63;;;1.40;;
70369;SDS011;57790;51.356;-2.906;2023-07-02T12:11:26;8.83;;;1.57;;
70369;SDS011;57790;51.356;-2.906;2023-07-02T12:14:27;8.97;;;1.33;;
70369;SDS011;57790;51.356;-2.906;2023-07-02T12:17:27;8.67;;;1.77;;
70369;SDS011;57790;51.356;-2.906;2023-07-02T12:20:28;10.02;;;1.58;;
70369;SDS011;57790;51.356;-2.906;2023-07-02T12:23:28;5.93;;;1.07;;
70369;SDS011;57790;51.356;-2.906;2023-07-02T12:26:28;11.33;;;1.70;;
70369;SDS011;57790;51.356;-2.906;2023-07-02T12:29:29;6.57;;;1.60;;
70369;SDS011;57790;51.356;-2.906;2023-07-02T12:32:29;6.50;;;1.37;;
70369;SDS011;57790;51.356;-2.906;2023-07-02T12:35:30;6.72;;;1.10;;
70369;SDS011;57790;51.356;-2.906;2023-07-02T12:38:30;5.43;;;1.20;;
70369;SDS011;57790;51.356;-2.906;2023-07-02T12:41:31;8.23;;;1.57;;
70369;SDS011;57790;51.356;-2.906;2023-07-02T12:44:31;6.47;;;1.40;;
70369;SDS011;57790;51.356;-2.906;2023-07-02T12:47:32;7.07;;;1.65;;
70369;SDS011;57790;51.356;-2.906;2023-07-02T12:50:32;6.87;;;1.20;;
70369;SDS011;57790;51.356;-2.906;2023-07-02T12:53:33;7.10;;;1.47;;
70369;SDS011;57790;51.356;-2.906;2023-07-02T12:56:33;7.83;;;1.53;;
70369;SDS011;57790;51.356;-2.906;2023-07-02T12:59:33;6.70;;;1.40;;
70369;SDS011;57790;51.356;-2.906;2023-07-02T13:02:35;9.07;;;1.67;;
70369;SDS011;57790;51.356;-2.906;2023-07-02T13:05:35;7.00;;;1.10;;
70369;SDS011;57790;51.356;-2.906;2023-07-02T13:08:35;10.70;;;1.33;;
70369;SDS011;57790;51.356;-2.906;2023-07-02T13:11:36;6.77;;;1.23;;
70369;SDS011;57790;51.356;-2.906;2023-07-02T13:14:38;8.50;;;1.77;;
70369;SDS011;57790;51.356;-2.906;2023-07-02T13:17:38;5.87;;;1.27;;
70369;SDS011;57790;51.356;-2.906;2023-07-02T13:20:39;6.10;;;1.00;;
70369;SDS011;57790;51.356;-2.906;2023-07-02T13:23:39;8.90;;;1.30;;
70369;SDS011;57790;51.356;-2.906;2023-07-02T13:26:40;8.05;;;1.30;;
70369;SDS011;57790;51.356;-2.906;2023-07-02T13:29:40;9.90;;;1.50;;
70369;SDS011;57790;51.356;-2.906;2023-07-02T13:32:40;7.10;;;1.00;;
70369;SDS011;57790;51.356;-2.906;2023-07-02T13:35:41;7.90;;;1.30;;
70369;SDS011;57790;51.356;-2.906;2023-07-02T13:38:45;7.25;;;1.40;;
70369;SDS011;57790;51.356;-2.906;2023-07-02T13:41:46;5.50;;;1.30;;
70369;SDS011;57790;51.356;-2.906;2023-07-02T13:44:46;7.07;;;1.17;;
70369;SDS011;57790;51.356;-2.906;2023-07-02T13:47:46;6.87;;;1.43;;
70369;SDS011;57790;51.356;-2.906;2023-07-02T13:50:47;7.87;;;1.53;;
70369;SDS011;57790;51.356;-2.906;2023-07-02T13:53:47;10.37;;;1.63;;
70369;SDS011;57790;51.356;-2.906;2023-07-02T13:56:48;5.17;;;1.10;;
70369;SDS011;57790;51.356;-2.906;2023-07-02T13:59:48;8.43;;;1.35;;
70369;SDS011;57790;51.356;-2.906;2023-07-02T14:02:49;6.93;;;1.30;;
70369;SDS011;57790;51.356;-2.906;2023-07-02T14:05:49;8.23;;;1.30;;
70369;SDS011;57790;51.356;-2.906;2023-07-02T14:08:50;7.17;;;1.13;;
70369;SDS011;57790;51.356;-2.906;2023-07-02T14:11:50;7.53;;;1.30;;
70369;SDS011;57790;51.356;-2.906;2023-07-02T14:14:51;6.50;;;1.37;;
70369;SDS011;57790;51.356;-2.906;2023-07-02T14:17:51;7.17;;;1.10;;
70369;SDS011;57790;51.356;-2.906;2023-07-02T14:20:51;7.53;;;1.47;;
70369;SDS011;57790;51.356;-2.906;2023-07-02T14:23:52;8.10;;;1.45;;
70369;SDS011;57790;51.356;-2.906;2023-07-02T14:26:52;7.03;;;1.40;;
70369;SDS011;57790;51.356;-2.906;2023-07-02T14:29:53;4.30;;;0.90;;
70369;SDS011;57790;51.356;-2.906;2023-07-02T14:32:53;7.23;;;1.13;;
70369;SDS011;57790;51.356;-2.906;2023-07-02T14:35:53;6.77;;;1.40;;
70369;SDS011;57790;51.356;-2.906;2023-07-02T14:38:55;6.90;;;1.30;;
70369;SDS011;57790;51.356;-2.906;2023-07-02T14:41:55;6.63;;;1.30;;
70369;SDS011;57790;51.356;-2.906;2023-07-02T14:44:56;7.22;;;1.35;;
70369;SDS011;57790;51.356;-2.906;2023-07-02T14:47:56;5.73;;;1.00;;
70369;SDS011;57790;51.356;-2.906;2023-07-02T14:51:00;9.13;;;1.55;;
70369;SDS011;57790;51.356;-2.906;2023-07-02T14:54:02;8.73;;;1.70;;
70369;SDS011;57790;51.356;-2.906;2023-07-02T14:57:03;8.07;;;1.33;;
70369;SDS011;57790;51.356;-2.906;2023-07-02T15:00:04;7.82;;;1.15;;
70369;SDS011;57790;51.356;-2.906;2023-07-02T15:03:05;9.23;;;1.38;;
70369;SDS011;57790;51.356;-2.906;2023-07-02T15:06:14;7.40;;;1.30;;
70369;SDS011;57790;51.356;-2.906;2023-07-02T15:09:16;7.97;;;1.10;;
70369;SDS011;57790;51.356;-2.906;2023-07-02T15:12:16;5.20;;;1.13;;
70369;SDS011;57790;51.356;-2.906;2023-07-02T15:15:17;6.10;;;1.27;;
70369;SDS011;57790;51.356;-2.906;2023-07-02T15:18:17;7.63;;;1.27;;
70369;SDS011;57790;51.356;-2.906;2023-07-02T15:21:19;9.02;;;1.60;;
70369;SDS011;57790;51.356;-2.906;2023-07-02T15:24:20;7.80;;;1.40;;
70369;SDS011;57790;51.356;-2.906;2023-07-02T15:27:20;6.07;;;1.42;;
70369;SDS011;57790;51.356;-2.906;2023-07-02T15:30:21;7.67;;;1.20;;
70369;SDS011;57790;51.356;-2.906;2023-07-02T15:33:22;8.83;;;1.40;;
70369;SDS011;57790;51.356;-2.906;2023-07-02T15:36:23;6.75;;;1.30;;
70369;SDS011;57790;51.356;-2.906;2023-07-02T15:39:23;8.60;;;1.57;;
70369;SDS011;57790;51.356;-2.906;2023-07-02T15:42:24;6.68;;;1.60;;
70369;SDS011;57790;51.356;-2.906;2023-07-02T15:45:29;6.15;;;1.30;;
70369;SDS011;57790;51.356;-2.906;2023-07-02T15:48:30;8.67;;;1.53;;
70369;SDS011;57790;51.356;-2.906;2023-07-02T15:51:30;6.82;;;1.13;;
70369;SDS011;57790;51.356;-2.906;2023-07-02T15:54:36;9.30;;;1.30;;
70369;SDS011;57790;51.356;-2.906;2023-07-02T15:57:37;6.03;;;1.60;;
70369;SDS011;57790;51.356;-2.906;2023-07-02T16:00:37;8.33;;;1.20;;
70369;SDS011;57790;51.356;-2.906;2023-07-02T16:03:37;6.93;;;1.40;;
70369;SDS011;57790;51.356;-2.906;2023-07-02T16:06:38;8.70;;;1.35;;
70369;SDS011;57790;51.356;-2.906;2023-07-02T16:09:38;9.00;;;1.40;;
70369;SDS011;57790;51.356;-2.906;2023-07-02T16:12:39;9.30;;;1.50;;
70369;SDS011;57790;51.356;-2.906;2023-07-02T16:15:41;7.63;;;1.50;;
70369;SDS011;57790;51.356;-2.906;2023-07-02T16:18:42;8.87;;;1.50;;
70369;SDS011;57790;51.356;-2.906;2023-07-02T16:21:42;7.72;;;1.33;;
70369;SDS011;57790;51.356;-2.906;2023-07-02T16:24:44;8.00;;;1.07;;
70369;SDS011;57790;51.356;-2.906;2023-07-02T16:27:45;5.70;;;1.30;;
70369;SDS011;57790;51.356;-2.906;2023-07-02T16:30:45;8.57;;;1.47;;
70369;SDS011;57790;51.356;-2.906;2023-07-02T16:33:45;8.50;;;1.50;;
70369;SDS011;57790;51.356;-2.906;2023-07-02T16:36:46;7.30;;;1.30;;
70369;SDS011;57790;51.356;-2.906;2023-07-02T16:39:48;6.03;;;1.10;;
70369;SDS011;57790;51.356;-2.906;2023-07-02T16:42:49;9.53;;;1.77;;
70369;SDS011;57790;51.356;-2.906;2023-07-02T16:45:55;6.63;;;1.30;;
70369;SDS011;57790;51.356;-2.906;2023-07-02T16:48:59;7.90;;;1.50;;
70369;SDS011;57790;51.356;-2.906;2023-07-02T16:51:59;8.03;;;1.27;;
70369;SDS011;57790;51.356;-2.906;2023-07-02T16:55:00;8.67;;;1.30;;
70369;SDS011;57790;51.356;-2.906;2023-07-02T16:58:00;9.25;;;1.65;;
70369;SDS011;57790;51.356;-2.906;2023-07-02T17:01:02;8.10;;;1.30;;
70369;SDS011;57790;51.356;-2.906;2023-07-02T17:04:07;8.90;;;1.70;;
70369;SDS011;57790;51.356;-2.906;2023-07-02T17:07:08;10.90;;;1.67;;
70369;SDS011;57790;51.356;-2.906;2023-07-02T17:10:08;6.57;;;1.40;;
70369;SDS011;57790;51.356;-2.906;2023-07-02T17:13:09;7.90;;;1.20;;
70369;SDS011;57790;51.356;-2.906;2023-07-02T17:16:09;6.93;;;1.23;;
70369;SDS011;57790;51.356;-2.906;2023-07-02T17:19:10;7.50;;;1.40;;
70369;SDS011;57790;51.356;-2.906;2023-07-02T17:22:12;7.40;;;1.42;;
70369;SDS011;57790;51.356;-2.906;2023-07-02T17:25:15;8.50;;;1.40;;
70369;SDS011;57790;51.356;-2.906;2023-07-02T17:28:16;11.43;;;1.70;;
70369;SDS011;57790;51.356;-2.906;2023-07-02T17:31:17;7.60;;;1.63;;
70369;SDS011;57790;51.356;-2.906;2023-07-02T17:34:19;8.93;;;1.70;;
70369;SDS011;57790;51.356;-2.906;2023-07-02T17:37:21;8.98;;;1.50;;
70369;SDS011;57790;51.356;-2.906;2023-07-02T17:40:22;8.97;;;1.70;;
70369;SDS011;57790;51.356;-2.906;2023-07-02T17:43:22;9.18;;;1.45;;
70369;SDS011;57790;51.356;-2.906;2023-07-02T17:46:23;8.63;;;1.80;;
70369;SDS011;57790;51.356;-2.906;2023-07-02T17:49:24;8.30;;;1.90;;
70369;SDS011;57790;51.356;-2.906;2023-07-02T17:52:26;10.00;;;1.63;;
70369;SDS011;57790;51.356;-2.906;2023-07-02T17:55:26;9.13;;;1.73;;
70369;SDS011;57790;51.356;-2.906;2023-07-02T17:58:27;9.33;;;1.80;;
70369;SDS011;57790;51.356;-2.906;2023-07-02T18:01:27;9.77;;;1.60;;
70369;SDS011;57790;51.356;-2.906;2023-07-02T18:04:28;9.52;;;1.70;;
70369;SDS011;57790;51.356;-2.906;2023-07-02T18:07:28;7.33;;;1.50;;